sensor_id;sensor_type;location;lat;lon;timestamp;temperature;humidity
25300;DHT22;13241;51.208;4.432;2023-07-28T00:02:01;18.60;99.90
25300;DHT22;13241;51.208;4.432;2023-07-28T00:04:28;18.60;99.90
25300;DHT22;13241;51.208;4.432;2023-07-28T00:06:54;18.60;99.90
25300;DHT22;13241;51.208;4.432;2023-07-28T00:09:21;18.70;99.90
25300;DHT22;13241;51.208;4.432;2023-07-28T00:11:49;18.70;99.90
25300;DHT22;13241;51.208;4.432;2023-07-28T00:14:16;18.60;99.90
25300;DHT22;13241;51.208;4.432;2023-07-28T00:16:43;18.60;99.90
25300;DHT22;13241;51.208;4.432;2023-07-28T00:19:10;18.70;99.90
25300;DHT22;13241;51.208;4.432;2023-07-28T00:21:37;18.60;99.90
25300;DHT22;13241;51.208;4.432;2023-07-28T00:24:04;18.60;99.90
25300;DHT22;13241;51.208;4.432;2023-07-28T00:26:31;18.60;99.90
25300;DHT22;13241;51.208;4.432;2023-07-28T00:28:59;18.50;99.90
25300;DHT22;13241;51.208;4.432;2023-07-28T00:31:26;18.60;99.90
25300;DHT22;13241;51.208;4.432;2023-07-28T00:33:52;18.50;99.90
25300;DHT22;13241;51.208;4.432;2023-07-28T00:36:19;18.60;99.90
25300;DHT22;13241;51.208;4.432;2023-07-28T00:38:46;18.40;99.90
25300;DHT22;13241;51.208;4.432;2023-07-28T00:41:13;18.60;99.90
25300;DHT22;13241;51.208;4.432;2023-07-28T00:43:40;18.60;99.90
25300;DHT22;13241;51.208;4.432;2023-07-28T00:46:09;18.60;99.90
25300;DHT22;13241;51.208;4.432;2023-07-28T00:48:36;18.60;99.90
25300;DHT22;13241;51.208;4.432;2023-07-28T00:51:03;18.60;99.90
25300;DHT22;13241;51.208;4.432;2023-07-28T00:53:31;18.60;99.90
25300;DHT22;13241;51.208;4.432;2023-07-28T00:55:58;18.60;99.90
25300;DHT22;13241;51.208;4.432;2023-07-28T00:58:26;18.60;99.90
25300;DHT22;13241;51.208;4.432;2023-07-28T01:00:53;18.50;99.90
25300;DHT22;13241;51.208;4.432;2023-07-28T01:03:20;18.50;99.90
25300;DHT22;13241;51.208;4.432;2023-07-28T01:08:52;18.50;99.90
25300;DHT22;13241;51.208;4.432;2023-07-28T01:11:21;18.50;99.90
25300;DHT22;13241;51.208;4.432;2023-07-28T01:13:48;18.70;99.90
25300;DHT22;13241;51.208;4.432;2023-07-28T01:16:15;18.70;99.90
25300;DHT22;13241;51.208;4.432;2023-07-28T01:18:43;18.60;99.90
25300;DHT22;13241;51.208;4.432;2023-07-28T01:21:14;18.60;99.90
25300;DHT22;13241;51.208;4.432;2023-07-28T01:26:36;18.70;99.90
25300;DHT22;13241;51.208;4.432;2023-07-28T01:29:05;18.60;99.90
25300;DHT22;13241;51.208;4.432;2023-07-28T01:31:33;18.60;99.90
25300;DHT22;13241;51.208;4.432;2023-07-28T01:34:00;18.60;99.90
25300;DHT22;13241;51.208;4.432;2023-07-28T01:36:26;18.60;99.90
25300;DHT22;13241;51.208;4.432;2023-07-28T01:38:53;18.70;99.90
25300;DHT22;13241;51.208;4.432;2023-07-28T01:41:20;18.70;99.90
25300;DHT22;13241;51.208;4.432;2023-07-28T01:43:47;18.70;99.90
25300;DHT22;13241;51.208;4.432;2023-07-28T01:46:14;18.70;99.90
25300;DHT22;13241;51.208;4.432;2023-07-28T01:48:41;18.70;99.90
25300;DHT22;13241;51.208;4.432;2023-07-28T01:51:08;18.70;99.90
25300;DHT22;13241;51.208;4.432;2023-07-28T01:53:35;18.70;99.90
25300;DHT22;13241;51.208;4.432;2023-07-28T01:56:01;18.70;99.90
25300;DHT22;13241;51.208;4.432;2023-07-28T01:58:28;18.70;99.90
25300;DHT22;13241;51.208;4.432;2023-07-28T02:00:55;18.80;99.90
25300;DHT22;13241;51.208;4.432;2023-07-28T02:03:22;18.70;99.90
25300;DHT22;13241;51.208;4.432;2023-07-28T02:05:50;18.70;99.90
25300;DHT22;13241;51.208;4.432;2023-07-28T02:08:17;18.70;99.90
25300;DHT22;13241;51.208;4.432;2023-07-28T02:10:44;18.70;99.90
25300;DHT22;13241;51.208;4.432;2023-07-28T02:13:11;18.80;99.90
25300;DHT22;13241;51.208;4.432;2023-07-28T02:15:38;18.80;99.90
25300;DHT22;13241;51.208;4.432;2023-07-28T02:18:07;18.80;99.90
25300;DHT22;13241;51.208;4.432;2023-07-28T02:20:34;18.80;99.90
25300;DHT22;13241;51.208;4.432;2023-07-28T02:23:03;18.80;99.90
25300;DHT22;13241;51.208;4.432;2023-07-28T02:25:30;18.80;99.90
25300;DHT22;13241;51.208;4.432;2023-07-28T02:27:57;18.60;99.90
25300;DHT22;13241;51.208;4.432;2023-07-28T02:30:24;18.80;99.90
25300;DHT22;13241;51.208;4.432;2023-07-28T02:32:51;18.80;99.90
25300;DHT22;13241;51.208;4.432;2023-07-28T02:35:18;18.80;99.90
25300;DHT22;13241;51.208;4.432;2023-07-28T02:37:47;19.00;99.90
25300;DHT22;13241;51.208;4.432;2023-07-28T02:40:14;18.70;99.90
25300;DHT22;13241;51.208;4.432;2023-07-28T02:42:41;18.80;99.90
25300;DHT22;13241;51.208;4.432;2023-07-28T02:45:09;18.80;99.90
25300;DHT22;13241;51.208;4.432;2023-07-28T02:47:37;18.80;99.90
25300;DHT22;13241;51.208;4.432;2023-07-28T02:50:04;18.90;99.90
25300;DHT22;13241;51.208;4.432;2023-07-28T02:52:32;18.80;99.90
25300;DHT22;13241;51.208;4.432;2023-07-28T02:54:59;18.80;99.90
25300;DHT22;13241;51.208;4.432;2023-07-28T02:57:27;18.80;99.90
25300;DHT22;13241;51.208;4.432;2023-07-28T02:59:54;18.80;99.90
25300;DHT22;13241;51.208;4.432;2023-07-28T03:02:21;18.70;99.90
25300;DHT22;13241;51.208;4.432;2023-07-28T03:04:51;18.80;99.90
25300;DHT22;13241;51.208;4.432;2023-07-28T03:07:37;18.80;99.90
25300;DHT22;13241;51.208;4.432;2023-07-28T03:10:07;18.90;99.90
25300;DHT22;13241;51.208;4.432;2023-07-28T03:12:36;18.90;99.90
25300;DHT22;13241;51.208;4.432;2023-07-28T03:15:03;18.80;99.90
25300;DHT22;13241;51.208;4.432;2023-07-28T03:17:30;18.80;99.90
25300;DHT22;13241;51.208;4.432;2023-07-28T03:19:57;18.80;99.90
25300;DHT22;13241;51.208;4.432;2023-07-28T03:22:24;18.90;99.90
25300;DHT22;13241;51.208;4.432;2023-07-28T03:24:51;18.80;99.90
25300;DHT22;13241;51.208;4.432;2023-07-28T03:27:18;18.90;99.90
25300;DHT22;13241;51.208;4.432;2023-07-28T03:29:45;18.80;99.90
25300;DHT22;13241;51.208;4.432;2023-07-28T03:32:12;18.80;99.90
25300;DHT22;13241;51.208;4.432;2023-07-28T03:34:40;18.80;99.90
25300;DHT22;13241;51.208;4.432;2023-07-28T03:37:09;18.90;99.90
25300;DHT22;13241;51.208;4.432;2023-07-28T03:39:38;18.90;99.90
25300;DHT22;13241;51.208;4.432;2023-07-28T03:42:04;18.80;99.90
25300;DHT22;13241;51.208;4.432;2023-07-28T03:44:32;18.80;99.90
25300;DHT22;13241;51.208;4.432;2023-07-28T03:46:59;18.90;99.90
25300;DHT22;13241;51.208;4.432;2023-07-28T03:49:26;18.90;99.90
25300;DHT22;13241;51.208;4.432;2023-07-28T03:51:53;18.90;99.90
25300;DHT22;13241;51.208;4.432;2023-07-28T03:54:20;18.90;99.90
25300;DHT22;13241;51.208;4.432;2023-07-28T03:56:49;18.90;99.90
25300;DHT22;13241;51.208;4.432;2023-07-28T03:59:16;18.80;99.90
25300;DHT22;13241;51.208;4.432;2023-07-28T04:01:43;18.90;99.90
25300;DHT22;13241;51.208;4.432;2023-07-28T04:04:09;18.90;99.90
25300;DHT22;13241;51.208;4.432;2023-07-28T04:06:45;18.70;99.90
25300;DHT22;13241;51.208;4.432;2023-07-28T04:09:14;18.90;99.90
25300;DHT22;13241;51.208;4.432;2023-07-28T04:11:41;18.90;99.90
25300;DHT22;13241;51.208;4.432;2023-07-28T04:14:09;18.90;99.90
25300;DHT22;13241;51.208;4.432;2023-07-28T04:16:35;18.90;99.90
25300;DHT22;13241;51.208;4.432;2023-07-28T04:19:03;18.80;99.90
25300;DHT22;13241;51.208;4.432;2023-07-28T04:21:30;18.90;99.90
25300;DHT22;13241;51.208;4.432;2023-07-28T04:23:57;18.70;99.90
25300;DHT22;13241;51.208;4.432;2023-07-28T04:26:25;18.90;99.90
25300;DHT22;13241;51.208;4.432;2023-07-28T04:28:59;18.90;99.90
25300;DHT22;13241;51.208;4.432;2023-07-28T04:31:27;18.90;99.90
25300;DHT22;13241;51.208;4.432;2023-07-28T04:33:58;18.90;99.90
25300;DHT22;13241;51.208;4.432;2023-07-28T04:36:37;18.90;99.90
25300;DHT22;13241;51.208;4.432;2023-07-28T04:39:04;19.00;99.90
25300;DHT22;13241;51.208;4.432;2023-07-28T04:41:31;18.80;99.90
25300;DHT22;13241;51.208;4.432;2023-07-28T04:43:58;19.00;99.90
25300;DHT22;13241;51.208;4.432;2023-07-28T04:46:27;19.00;99.90
25300;DHT22;13241;51.208;4.432;2023-07-28T04:48:56;19.00;99.90
25300;DHT22;13241;51.208;4.432;2023-07-28T04:51:46;19.00;99.90
25300;DHT22;13241;51.208;4.432;2023-07-28T04:54:19;19.10;99.90
25300;DHT22;13241;51.208;4.432;2023-07-28T04:56:46;19.00;99.90
25300;DHT22;13241;51.208;4.432;2023-07-28T04:59:14;19.00;99.90
25300;DHT22;13241;51.208;4.432;2023-07-28T05:01:41;19.00;99.90
25300;DHT22;13241;51.208;4.432;2023-07-28T05:04:08;19.00;99.90
25300;DHT22;13241;51.208;4.432;2023-07-28T05:06:35;19.00;99.90
25300;DHT22;13241;51.208;4.432;2023-07-28T05:09:02;19.00;99.90
25300;DHT22;13241;51.208;4.432;2023-07-28T05:11:34;19.00;99.90
25300;DHT22;13241;51.208;4.432;2023-07-28T05:14:01;19.00;99.90
25300;DHT22;13241;51.208;4.432;2023-07-28T05:16:29;19.00;99.90
25300;DHT22;13241;51.208;4.432;2023-07-28T05:19:06;19.00;99.90
25300;DHT22;13241;51.208;4.432;2023-07-28T05:21:52;19.00;99.90
25300;DHT22;13241;51.208;4.432;2023-07-28T05:24:25;18.90;99.90
25300;DHT22;13241;51.208;4.432;2023-07-28T05:26:52;19.00;99.90
25300;DHT22;13241;51.208;4.432;2023-07-28T05:29:19;19.10;99.90
25300;DHT22;13241;51.208;4.432;2023-07-28T05:31:47;19.00;99.90
25300;DHT22;13241;51.208;4.432;2023-07-28T05:34:22;19.10;99.90
25300;DHT22;13241;51.208;4.432;2023-07-28T05:36:50;19.20;99.90
25300;DHT22;13241;51.208;4.432;2023-07-28T05:39:17;19.20;99.90
25300;DHT22;13241;51.208;4.432;2023-07-28T05:41:45;19.20;99.90
25300;DHT22;13241;51.208;4.432;2023-07-28T05:44:13;19.20;99.90
25300;DHT22;13241;51.208;4.432;2023-07-28T05:46:40;19.20;99.90
25300;DHT22;13241;51.208;4.432;2023-07-28T05:49:08;19.30;99.90
25300;DHT22;13241;51.208;4.432;2023-07-28T05:51:35;19.30;99.90
25300;DHT22;13241;51.208;4.432;2023-07-28T05:54:02;19.40;99.90
25300;DHT22;13241;51.208;4.432;2023-07-28T05:56:29;19.40;99.90
25300;DHT22;13241;51.208;4.432;2023-07-28T05:58:56;19.40;99.90
25300;DHT22;13241;51.208;4.432;2023-07-28T06:01:24;19.50;99.90
25300;DHT22;13241;51.208;4.432;2023-07-28T06:04:22;19.60;99.90
25300;DHT22;13241;51.208;4.432;2023-07-28T06:06:52;19.50;99.90
25300;DHT22;13241;51.208;4.432;2023-07-28T06:09:19;19.70;99.90
25300;DHT22;13241;51.208;4.432;2023-07-28T06:11:46;19.60;99.90
25300;DHT22;13241;51.208;4.432;2023-07-28T06:14:13;19.70;99.90
25300;DHT22;13241;51.208;4.432;2023-07-28T06:16:40;19.70;99.90
25300;DHT22;13241;51.208;4.432;2023-07-28T06:19:07;19.70;99.90
25300;DHT22;13241;51.208;4.432;2023-07-28T06:21:36;19.60;99.90
25300;DHT22;13241;51.208;4.432;2023-07-28T06:24:03;19.80;99.90
25300;DHT22;13241;51.208;4.432;2023-07-28T06:26:30;19.80;99.90
25300;DHT22;13241;51.208;4.432;2023-07-28T06:28:57;19.80;99.90
25300;DHT22;13241;51.208;4.432;2023-07-28T06:31:24;19.90;99.90
25300;DHT22;13241;51.208;4.432;2023-07-28T06:33:51;20.00;99.90
25300;DHT22;13241;51.208;4.432;2023-07-28T06:36:18;20.00;99.90
25300;DHT22;13241;51.208;4.432;2023-07-28T06:38:45;20.10;99.90
25300;DHT22;13241;51.208;4.432;2023-07-28T06:41:15;20.40;99.90
25300;DHT22;13241;51.208;4.432;2023-07-28T06:43:44;20.40;99.90
25300;DHT22;13241;51.208;4.432;2023-07-28T06:46:12;20.40;99.90
25300;DHT22;13241;51.208;4.432;2023-07-28T06:48:39;20.40;99.90
25300;DHT22;13241;51.208;4.432;2023-07-28T06:51:06;20.60;99.90
25300;DHT22;13241;51.208;4.432;2023-07-28T06:53:33;20.40;99.90
25300;DHT22;13241;51.208;4.432;2023-07-28T06:56:01;20.40;99.90
25300;DHT22;13241;51.208;4.432;2023-07-28T06:58:27;20.30;99.90
25300;DHT22;13241;51.208;4.432;2023-07-28T07:00:55;20.30;99.90
25300;DHT22;13241;51.208;4.432;2023-07-28T07:03:23;20.30;99.90
25300;DHT22;13241;51.208;4.432;2023-07-28T07:05:50;20.40;99.90
25300;DHT22;13241;51.208;4.432;2023-07-28T07:08:18;20.40;99.90
25300;DHT22;13241;51.208;4.432;2023-07-28T07:10:49;20.50;99.90
25300;DHT22;13241;51.208;4.432;2023-07-28T07:13:19;20.60;99.90
25300;DHT22;13241;51.208;4.432;2023-07-28T07:15:46;20.70;99.90
25300;DHT22;13241;51.208;4.432;2023-07-28T07:18:13;20.70;99.90
25300;DHT22;13241;51.208;4.432;2023-07-28T07:20:40;20.70;99.90
25300;DHT22;13241;51.208;4.432;2023-07-28T07:23:07;20.70;99.90
25300;DHT22;13241;51.208;4.432;2023-07-28T07:25:34;20.80;99.90
25300;DHT22;13241;51.208;4.432;2023-07-28T07:28:03;20.80;99.90
25300;DHT22;13241;51.208;4.432;2023-07-28T07:30:32;20.80;99.90
25300;DHT22;13241;51.208;4.432;2023-07-28T07:33:00;20.90;99.90
25300;DHT22;13241;51.208;4.432;2023-07-28T07:35:27;21.10;99.90
25300;DHT22;13241;51.208;4.432;2023-07-28T07:37:54;21.20;99.90
25300;DHT22;13241;51.208;4.432;2023-07-28T07:40:21;21.30;99.90
25300;DHT22;13241;51.208;4.432;2023-07-28T07:42:48;21.40;99.90
25300;DHT22;13241;51.208;4.432;2023-07-28T07:45:16;21.40;99.90
25300;DHT22;13241;51.208;4.432;2023-07-28T07:47:43;21.50;99.90
25300;DHT22;13241;51.208;4.432;2023-07-28T07:50:10;21.70;99.90
25300;DHT22;13241;51.208;4.432;2023-07-28T07:52:38;21.80;99.90
25300;DHT22;13241;51.208;4.432;2023-07-28T07:55:09;21.90;99.90
25300;DHT22;13241;51.208;4.432;2023-07-28T07:57:39;22.00;99.90
25300;DHT22;13241;51.208;4.432;2023-07-28T08:00:07;22.20;99.90
25300;DHT22;13241;51.208;4.432;2023-07-28T08:02:40;22.40;99.90
25300;DHT22;13241;51.208;4.432;2023-07-28T08:05:10;22.50;99.90
25300;DHT22;13241;51.208;4.432;2023-07-28T08:07:37;22.50;99.90
25300;DHT22;13241;51.208;4.432;2023-07-28T08:10:04;22.90;99.90
25300;DHT22;13241;51.208;4.432;2023-07-28T08:12:31;23.10;99.90
25300;DHT22;13241;51.208;4.432;2023-07-28T08:14:59;23.10;99.90
25300;DHT22;13241;51.208;4.432;2023-07-28T08:17:26;23.10;99.90
25300;DHT22;13241;51.208;4.432;2023-07-28T08:19:53;22.90;99.90
25300;DHT22;13241;51.208;4.432;2023-07-28T08:22:19;22.80;99.90
25300;DHT22;13241;51.208;4.432;2023-07-28T08:24:46;22.70;99.90
25300;DHT22;13241;51.208;4.432;2023-07-28T08:27:13;22.60;99.90
25300;DHT22;13241;51.208;4.432;2023-07-28T08:29:40;22.60;99.90
25300;DHT22;13241;51.208;4.432;2023-07-28T08:32:07;22.70;99.90
25300;DHT22;13241;51.208;4.432;2023-07-28T08:34:34;22.70;99.90
25300;DHT22;13241;51.208;4.432;2023-07-28T08:37:01;22.80;99.90
25300;DHT22;13241;51.208;4.432;2023-07-28T08:39:28;22.80;99.90
25300;DHT22;13241;51.208;4.432;2023-07-28T08:41:59;22.90;99.90
25300;DHT22;13241;51.208;4.432;2023-07-28T08:44:30;22.80;99.90
25300;DHT22;13241;51.208;4.432;2023-07-28T08:46:58;22.80;99.90
25300;DHT22;13241;51.208;4.432;2023-07-28T08:49:25;23.00;99.90
25300;DHT22;13241;51.208;4.432;2023-07-28T08:51:58;23.10;99.90
25300;DHT22;13241;51.208;4.432;2023-07-28T08:54:25;23.10;99.90
25300;DHT22;13241;51.208;4.432;2023-07-28T08:56:52;23.20;99.90
25300;DHT22;13241;51.208;4.432;2023-07-28T08:59:28;23.30;99.90
25300;DHT22;13241;51.208;4.432;2023-07-28T09:01:56;23.50;99.90
25300;DHT22;13241;51.208;4.432;2023-07-28T09:04:27;23.50;99.90
25300;DHT22;13241;51.208;4.432;2023-07-28T09:06:55;23.70;99.90
25300;DHT22;13241;51.208;4.432;2023-07-28T09:09:23;24.10;99.90
25300;DHT22;13241;51.208;4.432;2023-07-28T09:11:53;24.50;99.90
25300;DHT22;13241;51.208;4.432;2023-07-28T09:14:21;24.90;99.90
25300;DHT22;13241;51.208;4.432;2023-07-28T09:16:50;25.10;99.90
25300;DHT22;13241;51.208;4.432;2023-07-28T09:19:20;25.30;99.90
25300;DHT22;13241;51.208;4.432;2023-07-28T09:21:58;25.40;99.90
25300;DHT22;13241;51.208;4.432;2023-07-28T09:24:32;25.30;99.90
25300;DHT22;13241;51.208;4.432;2023-07-28T09:27:00;25.10;99.90
25300;DHT22;13241;51.208;4.432;2023-07-28T09:29:28;24.90;99.90
25300;DHT22;13241;51.208;4.432;2023-07-28T09:32:03;24.70;99.90
25300;DHT22;13241;51.208;4.432;2023-07-28T09:34:31;24.50;99.90
25300;DHT22;13241;51.208;4.432;2023-07-28T09:37:00;24.30;99.90
25300;DHT22;13241;51.208;4.432;2023-07-28T09:39:27;24.40;99.90
25300;DHT22;13241;51.208;4.432;2023-07-28T09:41:54;24.60;99.90
25300;DHT22;13241;51.208;4.432;2023-07-28T09:44:25;24.70;99.90
25300;DHT22;13241;51.208;4.432;2023-07-28T09:46:56;24.90;99.90
25300;DHT22;13241;51.208;4.432;2023-07-28T09:49:36;24.90;99.90
25300;DHT22;13241;51.208;4.432;2023-07-28T09:52:08;25.00;99.90
25300;DHT22;13241;51.208;4.432;2023-07-28T09:54:39;25.10;99.90
25300;DHT22;13241;51.208;4.432;2023-07-28T09:57:19;25.10;99.90
25300;DHT22;13241;51.208;4.432;2023-07-28T09:59:47;25.20;99.90
25300;DHT22;13241;51.208;4.432;2023-07-28T10:02:14;25.10;99.90
25300;DHT22;13241;51.208;4.432;2023-07-28T10:04:42;24.90;99.90
25300;DHT22;13241;51.208;4.432;2023-07-28T10:07:10;24.70;99.90
25300;DHT22;13241;51.208;4.432;2023-07-28T10:09:37;24.70;99.90
25300;DHT22;13241;51.208;4.432;2023-07-28T10:12:05;25.00;99.90
25300;DHT22;13241;51.208;4.432;2023-07-28T10:14:37;25.20;99.90
25300;DHT22;13241;51.208;4.432;2023-07-28T10:17:05;25.20;99.90
25300;DHT22;13241;51.208;4.432;2023-07-28T10:19:36;25.30;99.90
25300;DHT22;13241;51.208;4.432;2023-07-28T10:22:11;25.30;99.90
25300;DHT22;13241;51.208;4.432;2023-07-28T10:25:01;25.20;99.90
25300;DHT22;13241;51.208;4.432;2023-07-28T10:27:29;24.90;99.90
25300;DHT22;13241;51.208;4.432;2023-07-28T10:30:00;24.90;99.90
25300;DHT22;13241;51.208;4.432;2023-07-28T10:32:28;24.80;99.90
25300;DHT22;13241;51.208;4.432;2023-07-28T10:35:00;24.70;99.90
25300;DHT22;13241;51.208;4.432;2023-07-28T10:37:27;24.60;99.90
25300;DHT22;13241;51.208;4.432;2023-07-28T10:43:02;24.70;99.90
25300;DHT22;13241;51.208;4.432;2023-07-28T10:45:31;24.60;99.90
25300;DHT22;13241;51.208;4.432;2023-07-28T10:47:59;24.70;99.90
25300;DHT22;13241;51.208;4.432;2023-07-28T10:50:30;24.80;99.90
25300;DHT22;13241;51.208;4.432;2023-07-28T10:52:58;24.90;99.90
25300;DHT22;13241;51.208;4.432;2023-07-28T10:55:27;24.90;99.90
25300;DHT22;13241;51.208;4.432;2023-07-28T10:57:55;24.70;99.90
25300;DHT22;13241;51.208;4.432;2023-07-28T11:00:24;24.50;99.90
25300;DHT22;13241;51.208;4.432;2023-07-28T11:02:53;24.30;99.90
25300;DHT22;13241;51.208;4.432;2023-07-28T11:05:30;24.00;99.90
25300;DHT22;13241;51.208;4.432;2023-07-28T11:07:59;23.90;99.90
25300;DHT22;13241;51.208;4.432;2023-07-28T11:10:31;24.10;99.90
25300;DHT22;13241;51.208;4.432;2023-07-28T11:13:00;24.40;99.90
25300;DHT22;13241;51.208;4.432;2023-07-28T11:15:36;24.50;99.90
25300;DHT22;13241;51.208;4.432;2023-07-28T11:18:03;24.60;99.90
25300;DHT22;13241;51.208;4.432;2023-07-28T11:20:31;24.50;99.90
25300;DHT22;13241;51.208;4.432;2023-07-28T11:23:00;24.60;99.90
25300;DHT22;13241;51.208;4.432;2023-07-28T11:25:31;24.90;99.90
25300;DHT22;13241;51.208;4.432;2023-07-28T11:28:01;25.20;99.90
25300;DHT22;13241;51.208;4.432;2023-07-28T11:30:28;25.30;99.90
25300;DHT22;13241;51.208;4.432;2023-07-28T11:32:55;25.30;99.90
25300;DHT22;13241;51.208;4.432;2023-07-28T11:35:22;25.20;99.90
25300;DHT22;13241;51.208;4.432;2023-07-28T11:37:51;25.00;99.90
25300;DHT22;13241;51.208;4.432;2023-07-28T11:40:21;24.80;99.90
25300;DHT22;13241;51.208;4.432;2023-07-28T11:42:50;24.60;99.90
25300;DHT22;13241;51.208;4.432;2023-07-28T11:45:19;24.50;99.90
25300;DHT22;13241;51.208;4.432;2023-07-28T11:50:29;24.30;99.90
25300;DHT22;13241;51.208;4.432;2023-07-28T11:53:00;24.10;99.90
25300;DHT22;13241;51.208;4.432;2023-07-28T11:55:27;24.10;99.90
25300;DHT22;13241;51.208;4.432;2023-07-28T11:57:55;24.10;99.90
25300;DHT22;13241;51.208;4.432;2023-07-28T12:00:39;24.10;99.90
25300;DHT22;13241;51.208;4.432;2023-07-28T12:03:08;24.10;99.90
25300;DHT22;13241;51.208;4.432;2023-07-28T12:06:01;24.50;99.90
25300;DHT22;13241;51.208;4.432;2023-07-28T12:08:35;25.00;99.90
25300;DHT22;13241;51.208;4.432;2023-07-28T12:11:03;25.30;99.90
25300;DHT22;13241;51.208;4.432;2023-07-28T12:13:33;25.50;99.90
25300;DHT22;13241;51.208;4.432;2023-07-28T12:16:39;25.60;99.90
25300;DHT22;13241;51.208;4.432;2023-07-28T12:19:13;25.90;99.90
25300;DHT22;13241;51.208;4.432;2023-07-28T12:21:40;25.70;99.90
25300;DHT22;13241;51.208;4.432;2023-07-28T12:24:07;25.30;99.90
25300;DHT22;13241;51.208;4.432;2023-07-28T12:26:35;25.00;99.90
25300;DHT22;13241;51.208;4.432;2023-07-28T12:29:06;24.70;99.90
25300;DHT22;13241;51.208;4.432;2023-07-28T12:31:35;24.50;99.90
25300;DHT22;13241;51.208;4.432;2023-07-28T12:34:12;24.60;99.90
25300;DHT22;13241;51.208;4.432;2023-07-28T12:36:51;25.00;99.90
25300;DHT22;13241;51.208;4.432;2023-07-28T12:39:20;25.30;99.90
25300;DHT22;13241;51.208;4.432;2023-07-28T12:41:50;25.30;99.90
25300;DHT22;13241;51.208;4.432;2023-07-28T12:44:41;25.60;99.90
25300;DHT22;13241;51.208;4.432;2023-07-28T12:47:10;26.00;99.90
25300;DHT22;13241;51.208;4.432;2023-07-28T12:49:37;26.40;99.90
25300;DHT22;13241;51.208;4.432;2023-07-28T12:52:06;26.50;99.90
25300;DHT22;13241;51.208;4.432;2023-07-28T12:54:33;26.70;99.90
25300;DHT22;13241;51.208;4.432;2023-07-28T12:57:10;26.60;99.90
25300;DHT22;13241;51.208;4.432;2023-07-28T12:59:39;26.40;99.90
25300;DHT22;13241;51.208;4.432;2023-07-28T13:02:09;26.10;99.90
25300;DHT22;13241;51.208;4.432;2023-07-28T13:04:36;25.50;99.90
25300;DHT22;13241;51.208;4.432;2023-07-28T13:07:03;24.90;99.90
25300;DHT22;13241;51.208;4.432;2023-07-28T13:09:33;24.50;99.90
25300;DHT22;13241;51.208;4.432;2023-07-28T13:12:03;24.20;99.90
25300;DHT22;13241;51.208;4.432;2023-07-28T13:14:33;24.00;99.90
25300;DHT22;13241;51.208;4.432;2023-07-28T13:17:00;24.00;99.90
25300;DHT22;13241;51.208;4.432;2023-07-28T13:19:27;24.00;99.90
25300;DHT22;13241;51.208;4.432;2023-07-28T13:21:54;24.30;99.90
25300;DHT22;13241;51.208;4.432;2023-07-28T13:24:21;24.70;99.90
25300;DHT22;13241;51.208;4.432;2023-07-28T13:26:48;25.10;99.90
25300;DHT22;13241;51.208;4.432;2023-07-28T13:29:15;25.40;99.90
25300;DHT22;13241;51.208;4.432;2023-07-28T13:31:42;25.50;99.90
25300;DHT22;13241;51.208;4.432;2023-07-28T13:34:09;25.30;99.90
25300;DHT22;13241;51.208;4.432;2023-07-28T13:36:36;25.30;99.90
25300;DHT22;13241;51.208;4.432;2023-07-28T13:39:03;25.50;99.90
25300;DHT22;13241;51.208;4.432;2023-07-28T13:41:31;25.60;99.90
25300;DHT22;13241;51.208;4.432;2023-07-28T13:43:58;25.70;99.90
25300;DHT22;13241;51.208;4.432;2023-07-28T13:46:28;25.80;99.90
25300;DHT22;13241;51.208;4.432;2023-07-28T13:48:55;26.00;99.90
25300;DHT22;13241;51.208;4.432;2023-07-28T13:51:33;26.30;99.90
25300;DHT22;13241;51.208;4.432;2023-07-28T13:54:19;26.60;99.90
25300;DHT22;13241;51.208;4.432;2023-07-28T13:56:49;27.40;99.90
25300;DHT22;13241;51.208;4.432;2023-07-28T13:59:20;28.40;99.90
25300;DHT22;13241;51.208;4.432;2023-07-28T14:01:49;29.00;99.90
25300;DHT22;13241;51.208;4.432;2023-07-28T14:04:16;29.30;99.90
25300;DHT22;13241;51.208;4.432;2023-07-28T14:06:43;29.30;99.90
25300;DHT22;13241;51.208;4.432;2023-07-28T14:09:10;28.90;99.90
25300;DHT22;13241;51.208;4.432;2023-07-28T14:11:37;28.30;99.90
25300;DHT22;13241;51.208;4.432;2023-07-28T14:14:04;27.70;99.90
25300;DHT22;13241;51.208;4.432;2023-07-28T14:16:31;27.20;99.90
25300;DHT22;13241;51.208;4.432;2023-07-28T14:18:58;26.90;99.90
25300;DHT22;13241;51.208;4.432;2023-07-28T14:21:24;26.70;99.90
25300;DHT22;13241;51.208;4.432;2023-07-28T14:23:51;26.40;99.90
25300;DHT22;13241;51.208;4.432;2023-07-28T14:26:18;26.10;99.90
25300;DHT22;13241;51.208;4.432;2023-07-28T14:28:45;25.70;99.90
25300;DHT22;13241;51.208;4.432;2023-07-28T14:31:12;25.40;99.90
25300;DHT22;13241;51.208;4.432;2023-07-28T14:33:39;25.20;99.90
25300;DHT22;13241;51.208;4.432;2023-07-28T14:36:06;25.10;99.90
25300;DHT22;13241;51.208;4.432;2023-07-28T14:38:33;25.10;99.90
25300;DHT22;13241;51.208;4.432;2023-07-28T14:41:00;25.30;99.90
25300;DHT22;13241;51.208;4.432;2023-07-28T14:43:27;25.90;99.90
25300;DHT22;13241;51.208;4.432;2023-07-28T14:45:54;26.70;99.90
25300;DHT22;13241;51.208;4.432;2023-07-28T14:48:21;27.70;99.90
25300;DHT22;13241;51.208;4.432;2023-07-28T14:50:48;28.40;99.90
25300;DHT22;13241;51.208;4.432;2023-07-28T14:53:34;29.60;99.90
25300;DHT22;13241;51.208;4.432;2023-07-28T14:56:03;29.60;99.90
25300;DHT22;13241;51.208;4.432;2023-07-28T14:58:30;29.20;99.90
25300;DHT22;13241;51.208;4.432;2023-07-28T15:00:58;29.00;99.90
25300;DHT22;13241;51.208;4.432;2023-07-28T15:03:28;28.90;99.90
25300;DHT22;13241;51.208;4.432;2023-07-28T15:05:55;28.90;99.90
25300;DHT22;13241;51.208;4.432;2023-07-28T15:08:23;28.90;99.90
25300;DHT22;13241;51.208;4.432;2023-07-28T15:10:50;29.80;99.90
25300;DHT22;13241;51.208;4.432;2023-07-28T15:13:17;31.20;99.90
25300;DHT22;13241;51.208;4.432;2023-07-28T15:15:44;32.40;99.90
25300;DHT22;13241;51.208;4.432;2023-07-28T15:18:12;33.20;99.90
25300;DHT22;13241;51.208;4.432;2023-07-28T15:20:40;33.70;99.90
25300;DHT22;13241;51.208;4.432;2023-07-28T15:23:08;34.00;99.90
25300;DHT22;13241;51.208;4.432;2023-07-28T15:25:36;34.30;99.90
25300;DHT22;13241;51.208;4.432;2023-07-28T15:28:14;34.70;99.50
25300;DHT22;13241;51.208;4.432;2023-07-28T15:30:42;35.10;99.00
25300;DHT22;13241;51.208;4.432;2023-07-28T15:33:12;35.20;97.10
25300;DHT22;13241;51.208;4.432;2023-07-28T15:35:39;35.20;97.30
25300;DHT22;13241;51.208;4.432;2023-07-28T15:38:06;35.00;95.90
25300;DHT22;13241;51.208;4.432;2023-07-28T15:40:33;34.50;96.10
25300;DHT22;13241;51.208;4.432;2023-07-28T15:43:00;34.80;96.40
25300;DHT22;13241;51.208;4.432;2023-07-28T15:45:27;35.10;95.70
25300;DHT22;13241;51.208;4.432;2023-07-28T15:47:54;34.20;96.00
25300;DHT22;13241;51.208;4.432;2023-07-28T15:50:21;34.20;96.90
25300;DHT22;13241;51.208;4.432;2023-07-28T15:52:48;34.30;96.90